Radar AviationWeather DUATS TFRs Wunderground Accuweather Weather.com

alt : Radar

TAFs

KDTW 291213Z 2912/3018 05005KT P6SM BKN028 OVC035
   FM291300 03007KT 6SM -SHRA BKN028 OVC035
   FM291900 06010KT P6SM OVC045
   FM300000 06004KT P6SM SCT200
   FM301500 08012KT P6SM OVC200
KFDY 291159Z 2912/3012 02006KT P6SM OVC010
   FM291600 34006KT P6SM OVC015
   FM292000 03008KT P6SM OVC025
   FM300100 06006KT P6SM SCT035 BKN200
KCLE 291137Z 2912/3018 34005KT 2SM BR VCSH OVC005
     TEMPO 2912/2915 4SM BKN010
   FM291500 36006KT P6SM OVC015
   FM292000 01007KT P6SM OVC022
   FM300100 VRB04KT P6SM SCT025
   FM301500 09008KT P6SM OVC100
KTOL 291137Z 2912/3012 03008KT P6SM BKN023 OVC035
   FM292100 05006KT P6SM BKN035
   FM300100 06003KT P6SM SCT040
KJXN 291132Z 2912/3012 05004KT P6SM VCSH OVC025
   FM291800 07005KT P6SM OVC035
   FM300400 09003KT P6SM SCT050
KFWA 291130Z 2912/3012 VRB03KT 6SM BR OVC012
     TEMPO 2912/2914 4SM -DZ BR OVC007
   FM291400 03004KT P6SM OVC010
   FM291800 04005KT P6SM BKN025
   FM292300 06006KT P6SM BKN050

METARs

KJXN 291356Z 36004KT 10SM OVC029 06/02 A3005 RMK AO2 RAB1259E09 SLP182 P0000 T00610022
KDUH 291355Z AUTO 00000KT 10SM OVC026 09/01 A3005 RMK AO2 T00900009
KFWA 291354Z 02003KT 3SM -RA BR OVC012 07/06 A3004 RMK AO2 SLP174 P0000 T00720056
KDTW 291353Z 03004KT 7SM BKN020 BKN025 OVC060 06/03 A3006 RMK AO2 RAB18E49 SLP183 P0002 T00610028
KFDY 291353Z AUTO 00000KT 10SM OVC011 08/04 A3003 RMK AO2 SLP167 T00830039
KTDZ 291353Z AUTO 02005KT 10SM OVC022 09/02 A3005 RMK AO2 SLP179 T00890017
KTOL 291352Z 35004KT 10SM OVC023 08/02 A3004 RMK AO2 SLP173 T00830017
KCLE 291351Z 34005KT 2SM BR OVC007 10/08 A3002 RMK AO2 SLP170 T01000083

alt : Satellite

alt : TFRs